Kakariki — ZMKA — position and weather

sailwx.info

Track history (hours):
 
Tides and Currents Weather Stations Pressure Air Temp Water Temp Dewpoint Dewpoint Depression Visibility Wind Speed Wind Dir Waves Ship Positions

Kakariki

Last reported at 2014-Oct-31 18:00 UTC. Time now 2014-Oct-31 20:11 UTC.
Position S 36°42' E 176°30'.

Length 183 m; beam 32 m; draft 11 m.

Type: Ship (hazmat cat A). MMSI: 512000050.

Wind from 250 at 15 knots

Waves 1.0 meters (3 feet), 5 second period

Barometer 1019.0 mb
Air temperature 15.4 ° C
Visibility: greater than 10.8 NM
Dewpoint 13.6 ° C

Date/timePositionNaut miles runAvg speedWind from/ knotsBaromVisibWave heightAir tempDewpointWater temp
2014-Oct-31 18:00S 36°42' E 176°30'6211.4 250 / 151019.010.8 1.015.413.6
2014-Oct-31 12:33S 36°21' E 175°18'1312.7
2014-Oct-31 11:33S 36°17' E 175°03'1413.0
2014-Oct-31 10:30S 36°08' E 174°50'8 0.2
2014-Oct-29 18:20S 36°13' E 174°57'911.3
2014-Oct-29 17:33S 36°18' E 175°07'1211.0
2014-Oct-29 16:29S 36°21' E 175°20'2210.7
2014-Oct-29 14:24S 36°29' E 175°46'  
2014-Oct-26 23:04S 36°19' E 175°11'713.6
2014-Oct-26 22:33S 36°17' E 175°03'1413.4
2014-Oct-26 21:32S 36°08' E 174°49'8 0.3
2014-Oct-25 17:26S 36°03' E 174°42'1612.5
2014-Oct-25 16:10S 36°13' E 174°56'712.2
2014-Oct-25 15:33S 36°17' E 175°04'1312.6
2014-Oct-25 14:33S 36°21' E 175°19'1812.4
2014-Oct-25 13:05S 36°27' E 175°40'812.2
2014-Oct-25 12:27S 36°29' E 175°49'  
2014-Oct-22 22:33S 36°27' E 175°40'1712.5
2014-Oct-22 21:12S 36°21' E 175°21'812.3
2014-Oct-22 20:33S 36°19' E 175°11'1211.8
2014-Oct-22 19:32S 36°14' E 174°58'  
Track history (hours):
 
Tides and Currents Weather Stations Pressure Air Temp Water Temp Dewpoint Dewpoint Depression Visibility Wind Speed Wind Dir Waves Ship Positions

Kakariki

Last reported at 2014-Oct-31 18:00 UTC. Time now 2014-Oct-31 20:11 UTC.
Position S 36°42' E 176°30'.

Length 183 m; beam 32 m; draft 11 m.

Type: Ship (hazmat cat A). MMSI: 512000050.

Wind from 250 at 15 knots

Waves 1.0 meters (3 feet), 5 second period

Barometer 1019.0 mb
Air temperature 15.4 ° C
Visibility: greater than 10.8 NM
Dewpoint 13.6 ° C

Date/timePositionNaut miles runAvg speedWind from/ knotsBaromVisibWave heightAir tempDewpointWater temp
2014-Oct-31 18:00S 36°42' E 176°30'6211.4 250 / 151019.010.8 1.015.413.6
2014-Oct-31 12:33S 36°21' E 175°18'1312.7
2014-Oct-31 11:33S 36°17' E 175°03'1413.0
2014-Oct-31 10:30S 36°08' E 174°50'8 0.2
2014-Oct-29 18:20S 36°13' E 174°57'911.3
2014-Oct-29 17:33S 36°18' E 175°07'1211.0
2014-Oct-29 16:29S 36°21' E 175°20'2210.7
2014-Oct-29 14:24S 36°29' E 175°46'  
2014-Oct-26 23:04S 36°19' E 175°11'713.6
2014-Oct-26 22:33S 36°17' E 175°03'1413.4
2014-Oct-26 21:32S 36°08' E 174°49'8 0.3
2014-Oct-25 17:26S 36°03' E 174°42'1612.5
2014-Oct-25 16:10S 36°13' E 174°56'712.2
2014-Oct-25 15:33S 36°17' E 175°04'1312.6
2014-Oct-25 14:33S 36°21' E 175°19'1812.4
2014-Oct-25 13:05S 36°27' E 175°40'812.2
2014-Oct-25 12:27S 36°29' E 175°49'  
2014-Oct-22 22:33S 36°27' E 175°40'1712.5
2014-Oct-22 21:12S 36°21' E 175°21'812.3
2014-Oct-22 20:33S 36°19' E 175°11'1211.8
2014-Oct-22 19:32S 36°14' E 174°58'  

Dump ship's entire track history